Time;durP1;ratioP1;P1;durP2;ratioP2;P2;SDS_P1;SDS_P2;PMS_P1;PMS_P2;Temp;Humidity;BMP_temperature;BMP_pressure;BME280_temperature;BME280_humidity;BME280_pressure;Samples;Min_cycle;Max_cycle;Signal;HPM_P1;HPM_P2
2022/04/30 00:00:29;;;;;;;;;;;10.70;99.90;;;;;;5042679;28;19909;-63
2022/04/30 00:02:57;;;;;;;;;;;10.70;99.90;;;;;;5043472;28;19917;-65
2022/04/30 00:05:23;;;;;;;;;;;10.70;99.90;;;;;;5046461;28;19915;-63
2022/04/30 00:07:48;;;;;;;;;;;10.70;99.90;;;;;;5040516;28;19995;-65
2022/04/30 00:10:14;;;;;;;;;;;10.60;99.90;;;;;;5044604;28;20443;-62
2022/04/30 00:12:39;;;;;;;;;;;10.60;99.90;;;;;;5048257;28;19963;-64
2022/04/30 00:15:05;;;;;;;;;;;10.60;99.90;;;;;;5043636;28;19913;-65
2022/04/30 00:17:30;;;;;;;;;;;10.60;99.90;;;;;;5048137;28;19912;-64
2022/04/30 00:19:56;;;;;;;;;;;10.60;99.90;;;;;;5041922;28;20012;-64
2022/04/30 00:22:21;;;;;;;;;;;10.60;99.90;;;;;;5049131;28;20367;-65
2022/04/30 00:24:48;;;;;;;;;;;10.60;99.90;;;;;;5045203;28;19909;-63
2022/04/30 00:27:14;;;;;;;;;;;10.50;99.90;;;;;;5048729;28;19956;-65
2022/04/30 00:29:39;;;;;;;;;;;10.50;99.90;;;;;;5041929;28;19952;-65
2022/04/30 00:32:05;;;;;;;;;;;10.50;99.90;;;;;;5042439;28;19947;-63
2022/04/30 00:34:31;;;;;;;;;;;10.40;99.90;;;;;;5047066;28;19912;-64
2022/04/30 00:36:58;;;;;;;;;;;10.40;99.90;;;;;;5048419;28;20945;-62
2022/04/30 00:39:24;;;;;;;;;;;10.40;99.90;;;;;;5045886;28;19909;-64
2022/04/30 00:41:49;;;;;;;;;;;10.30;99.90;;;;;;5043189;28;19973;-65
2022/04/30 00:44:18;;;;;;;;;;;10.30;99.90;;;;;;5047033;28;19916;-66
2022/04/30 00:46:44;;;;;;;;;;;10.20;99.90;;;;;;5046344;28;19923;-65
2022/04/30 00:49:09;;;;;;;;;;;10.10;99.90;;;;;;5041742;28;19929;-64
2022/04/30 00:51:36;;;;;;;;;;;10.10;99.90;;;;;;5038937;28;19928;-66
2022/04/30 00:54:04;;;;;;;;;;;10.10;99.90;;;;;;5044420;28;20055;-65
2022/04/30 00:56:32;;;;;;;;;;;10.00;99.90;;;;;;5049340;28;20509;-65
2022/04/30 00:59:00;;;;;;;;;;;10.00;99.90;;;;;;5043610;28;21707;-65
2022/04/30 01:01:26;;;;;;;;;;;10.00;99.90;;;;;;5045024;28;19931;-65
2022/04/30 01:03:52;;;;;;;;;;;10.00;99.90;;;;;;5045060;28;20641;-65
2022/04/30 01:06:18;;;;;;;;;;;10.00;99.90;;;;;;5044721;28;19909;-65
2022/04/30 01:08:44;;;;;;;;;;;9.90;99.90;;;;;;5043948;28;19916;-64
2022/04/30 01:11:09;;;;;;;;;;;9.90;99.90;;;;;;5048445;28;20373;-65
2022/04/30 01:13:36;;;;;;;;;;;9.90;99.90;;;;;;5045170;28;19905;-64
2022/04/30 01:16:02;;;;;;;;;;;9.90;99.90;;;;;;5041561;28;20274;-64
2022/04/30 01:18:27;;;;;;;;;;;9.80;99.90;;;;;;5047078;28;19909;-65
2022/04/30 01:20:55;;;;;;;;;;;9.80;99.90;;;;;;5045712;28;19924;-65
2022/04/30 01:23:21;;;;;;;;;;;9.70;99.90;;;;;;5041216;28;19905;-65
2022/04/30 01:25:47;;;;;;;;;;;9.60;99.90;;;;;;5047007;28;19915;-65
2022/04/30 01:28:14;;;;;;;;;;;9.60;99.90;;;;;;5047044;28;19928;-65
2022/04/30 01:30:39;;;;;;;;;;;9.60;99.90;;;;;;5044570;28;20003;-64
2022/04/30 01:38:33;;;;;;;;;;;9.40;99.90;;;;;;5044793;28;20401;-64
2022/04/30 01:40:59;;;;;;;;;;;9.40;99.90;;;;;;5046704;28;19909;-64
2022/04/30 01:43:25;;;;;;;;;;;9.40;99.90;;;;;;5045090;28;20378;-64
2022/04/30 01:45:50;;;;;;;;;;;9.40;99.90;;;;;;5043894;28;19936;-64
2022/04/30 01:48:16;;;;;;;;;;;9.40;99.90;;;;;;5039235;28;19943;-64
2022/04/30 01:50:42;;;;;;;;;;;9.40;99.90;;;;;;5049338;28;19912;-65
2022/04/30 01:53:08;;;;;;;;;;;9.30;99.90;;;;;;5048911;28;19935;-66
2022/04/30 01:55:33;;;;;;;;;;;9.30;99.90;;;;;;5049260;28;19991;-64
2022/04/30 01:57:59;;;;;;;;;;;9.30;99.90;;;;;;5041677;28;19909;-65
2022/04/30 02:00:26;;;;;;;;;;;9.30;99.90;;;;;;5046648;28;19913;-64
2022/04/30 02:02:53;;;;;;;;;;;9.30;99.90;;;;;;5050329;28;20302;-65
2022/04/30 02:05:20;;;;;;;;;;;9.20;99.90;;;;;;5050562;28;19955;-64
2022/04/30 02:07:45;;;;;;;;;;;9.20;99.90;;;;;;5041854;28;19917;-64
2022/04/30 02:10:11;;;;;;;;;;;9.10;99.90;;;;;;5050237;28;19966;-64
2022/04/30 02:12:37;;;;;;;;;;;9.10;99.90;;;;;;5039981;28;19912;-63
2022/04/30 02:15:03;;;;;;;;;;;9.10;99.90;;;;;;5047218;28;20414;-65
2022/04/30 02:17:29;;;;;;;;;;;9.10;99.90;;;;;;5047355;28;20539;-65
2022/04/30 02:22:40;;;;;;;;;;;9.10;99.90;;;;;;5048194;28;19999;-65
2022/04/30 02:25:09;;;;;;;;;;;9.00;99.90;;;;;;5051304;28;19920;-64
2022/04/30 02:27:41;;;;;;;;;;;9.00;99.90;;;;;;5052266;28;20286;-65
2022/04/30 02:30:08;;;;;;;;;;;9.00;99.90;;;;;;5046221;28;19913;-64
2022/04/30 02:32:51;;;;;;;;;;;9.00;99.90;;;;;;5059575;22;19921;-56
2022/04/30 02:35:17;;;;;;;;;;;9.00;99.90;;;;;;5049513;28;19917;-55
2022/04/30 02:37:44;;;;;;;;;;;9.00;99.90;;;;;;5050261;28;19908;-54
2022/04/30 02:40:11;;;;;;;;;;;9.00;99.90;;;;;;5051104;28;19926;-53
2022/04/30 02:42:38;;;;;;;;;;;8.90;99.90;;;;;;5051458;28;19913;-55
2022/04/30 02:45:04;;;;;;;;;;;8.90;99.90;;;;;;5048190;28;19909;-56
2022/04/30 02:47:30;;;;;;;;;;;8.90;99.90;;;;;;5051149;28;19916;-54
2022/04/30 02:49:55;;;;;;;;;;;8.90;99.90;;;;;;5050933;28;20318;-53
2022/04/30 02:52:21;;;;;;;;;;;8.80;99.90;;;;;;5050133;28;19915;-54
2022/04/30 02:54:46;;;;;;;;;;;8.80;99.90;;;;;;5049091;28;19912;-57
2022/04/30 02:57:12;;;;;;;;;;;8.80;99.90;;;;;;5046484;28;19916;-55
2022/04/30 02:59:55;;;;;;;;;;;8.70;99.90;;;;;;5047461;28;19995;-56
2022/04/30 03:02:21;;;;;;;;;;;8.70;99.90;;;;;;5048832;28;19917;-56
2022/04/30 03:04:53;;;;;;;;;;;8.60;99.90;;;;;;5051365;28;19914;-56
2022/04/30 03:07:19;;;;;;;;;;;8.60;99.90;;;;;;5048882;28;19999;-55
2022/04/30 03:09:47;;;;;;;;;;;8.60;99.90;;;;;;5049043;28;20550;-57
2022/04/30 03:12:12;;;;;;;;;;;8.60;99.90;;;;;;5045756;28;19956;-55
2022/04/30 03:14:38;;;;;;;;;;;8.60;99.90;;;;;;5048542;28;19952;-56
2022/04/30 03:22:32;;;;;;;;;;;8.50;99.90;;;;;;5047092;28;19935;-56
2022/04/30 03:24:57;;;;;;;;;;;8.40;99.90;;;;;;5049866;28;19909;-56
2022/04/30 03:27:23;;;;;;;;;;;8.30;99.90;;;;;;5048727;28;19974;-54
2022/04/30 03:29:48;;;;;;;;;;;8.30;99.90;;;;;;5048092;28;19958;-58
2022/04/30 03:32:14;;;;;;;;;;;8.30;99.90;;;;;;5046465;28;19920;-53
2022/04/30 03:34:39;;;;;;;;;;;8.20;99.90;;;;;;5046282;28;19912;-56
2022/04/30 03:37:05;;;;;;;;;;;8.20;99.90;;;;;;5046188;28;19915;-57
2022/04/30 03:39:30;;;;;;;;;;;8.20;99.90;;;;;;5048909;28;20011;-54
2022/04/30 03:41:56;;;;;;;;;;;8.20;99.90;;;;;;5044255;28;19975;-52
2022/04/30 03:44:23;;;;;;;;;;;8.20;99.90;;;;;;5048162;28;19918;-57
2022/04/30 03:46:49;;;;;;;;;;;8.10;99.90;;;;;;5046864;28;19909;-55
2022/04/30 03:49:14;;;;;;;;;;;8.10;99.90;;;;;;5049880;28;19920;-53
2022/04/30 03:51:40;;;;;;;;;;;8.10;99.90;;;;;;5043907;28;19909;-58
2022/04/30 03:54:05;;;;;;;;;;;8.10;99.90;;;;;;5045828;28;20367;-55
2022/04/30 03:56:32;;;;;;;;;;;8.00;99.90;;;;;;5049480;28;20475;-55
2022/04/30 03:58:57;;;;;;;;;;;8.00;99.90;;;;;;5047785;28;19915;-55
2022/04/30 04:01:23;;;;;;;;;;;8.00;99.90;;;;;;5047504;28;19909;-55
2022/04/30 04:03:50;;;;;;;;;;;8.00;99.90;;;;;;5042843;28;19912;-53
2022/04/30 04:06:16;;;;;;;;;;;8.00;99.90;;;;;;5048985;28;19916;-55
2022/04/30 04:08:42;;;;;;;;;;;8.00;99.90;;;;;;5046265;28;19913;-52
2022/04/30 04:11:10;;;;;;;;;;;7.90;99.90;;;;;;5047928;28;19919;-55
2022/04/30 04:19:04;;;;;;;;;;;7.80;99.90;;;;;;5048212;28;19923;-55
2022/04/30 04:21:30;;;;;;;;;;;7.80;99.90;;;;;;5048962;28;19912;-55
2022/04/30 04:26:39;;;;;;;;;;;7.70;99.90;;;;;;5048498;28;19954;-54
2022/04/30 04:29:05;;;;;;;;;;;7.70;99.90;;;;;;5047404;28;19916;-56
2022/04/30 04:31:30;;;;;;;;;;;7.70;99.90;;;;;;5047422;28;19912;-54
2022/04/30 04:33:56;;;;;;;;;;;7.70;99.90;;;;;;5048034;28;19934;-53
2022/04/30 04:36:21;;;;;;;;;;;7.80;99.90;;;;;;5048598;28;20279;-58
2022/04/30 04:38:47;;;;;;;;;;;7.80;99.90;;;;;;5049364;28;19908;-54
2022/04/30 04:41:12;;;;;;;;;;;7.80;99.90;;;;;;5047062;28;19920;-52
2022/04/30 04:43:38;;;;;;;;;;;7.90;99.90;;;;;;5048287;28;19912;-56
2022/04/30 04:46:03;;;;;;;;;;;7.90;99.90;;;;;;5046658;28;19947;-54
2022/04/30 04:48:29;;;;;;;;;;;7.90;99.90;;;;;;5050428;28;19963;-58
2022/04/30 04:50:55;;;;;;;;;;;7.90;99.90;;;;;;5044505;28;19923;-55
2022/04/30 04:53:20;;;;;;;;;;;7.90;99.90;;;;;;5049761;28;19954;-54
2022/04/30 04:55:46;;;;;;;;;;;7.90;99.90;;;;;;5047729;28;19917;-59
2022/04/30 04:58:11;;;;;;;;;;;8.00;99.90;;;;;;5046827;28;19909;-56
2022/04/30 05:00:37;;;;;;;;;;;7.90;99.90;;;;;;5048207;28;19909;-58
2022/04/30 05:03:02;;;;;;;;;;;7.90;99.90;;;;;;5048500;28;19916;-56
2022/04/30 05:05:28;;;;;;;;;;;7.90;99.90;;;;;;5047354;28;19909;-54
2022/04/30 05:07:53;;;;;;;;;;;7.90;99.90;;;;;;5048575;28;19966;-57
2022/04/30 05:10:18;;;;;;;;;;;8.00;99.90;;;;;;5047221;28;19908;-54
2022/04/30 05:12:46;;;;;;;;;;;8.00;99.90;;;;;;5046098;28;19913;-57
2022/04/30 05:15:14;;;;;;;;;;;7.90;99.90;;;;;;5048123;28;19916;-55
2022/04/30 05:17:39;;;;;;;;;;;8.00;99.90;;;;;;5046826;28;19915;-57
2022/04/30 05:20:05;;;;;;;;;;;8.00;99.90;;;;;;5046073;28;19908;-57
2022/04/30 05:22:31;;;;;;;;;;;7.90;99.90;;;;;;5052990;28;20337;-58
2022/04/30 05:24:56;;;;;;;;;;;8.00;99.90;;;;;;5051966;28;19944;-55
2022/04/30 05:27:22;;;;;;;;;;;8.00;99.90;;;;;;5051288;28;19908;-56
2022/04/30 05:29:47;;;;;;;;;;;8.00;99.90;;;;;;5050471;28;20564;-54
2022/04/30 05:32:13;;;;;;;;;;;8.00;99.90;;;;;;5048411;28;19917;-55
2022/04/30 05:34:38;;;;;;;;;;;8.10;99.90;;;;;;5052242;28;19908;-54
2022/04/30 05:37:04;;;;;;;;;;;8.10;99.90;;;;;;5050439;28;19943;-55
2022/04/30 05:39:29;;;;;;;;;;;8.20;99.90;;;;;;5050627;28;19913;-53
2022/04/30 05:41:55;;;;;;;;;;;8.20;99.90;;;;;;5048711;28;19960;-52
2022/04/30 05:44:20;;;;;;;;;;;8.20;99.90;;;;;;5050723;28;19908;-53
2022/04/30 05:46:45;;;;;;;;;;;8.20;99.90;;;;;;5049387;28;20380;-55
2022/04/30 05:49:11;;;;;;;;;;;8.20;99.90;;;;;;5048122;28;20367;-58
2022/04/30 05:51:36;;;;;;;;;;;8.30;99.90;;;;;;5050703;28;19912;-53
2022/04/30 05:54:02;;;;;;;;;;;8.40;99.90;;;;;;5042641;28;19909;-58
2022/04/30 05:56:27;;;;;;;;;;;8.30;99.90;;;;;;5048246;28;19962;-58
2022/04/30 05:58:53;;;;;;;;;;;8.30;99.90;;;;;;5047534;28;20055;-54
2022/04/30 06:01:18;;;;;;;;;;;8.30;99.90;;;;;;5047142;28;19908;-55
2022/04/30 06:03:44;;;;;;;;;;;8.40;99.90;;;;;;5052322;28;19904;-53
2022/04/30 06:06:09;;;;;;;;;;;8.40;99.90;;;;;;5047699;28;19909;-56
2022/04/30 06:08:35;;;;;;;;;;;8.40;99.90;;;;;;5046954;28;19915;-58
2022/04/30 06:11:01;;;;;;;;;;;8.40;99.90;;;;;;5050842;28;19909;-58
2022/04/30 06:13:26;;;;;;;;;;;8.40;99.90;;;;;;5052051;28;20024;-55
2022/04/30 06:15:52;;;;;;;;;;;8.40;99.90;;;;;;5048608;28;19954;-56
2022/04/30 06:18:17;;;;;;;;;;;8.40;99.90;;;;;;5048929;28;19970;-56
2022/04/30 06:20:43;;;;;;;;;;;8.40;99.90;;;;;;5045909;28;19909;-53
2022/04/30 06:23:09;;;;;;;;;;;8.30;99.90;;;;;;5050614;28;19934;-56
2022/04/30 06:25:37;;;;;;;;;;;8.30;99.90;;;;;;5051079;28;19951;-58
2022/04/30 06:28:03;;;;;;;;;;;8.30;99.90;;;;;;5043441;28;19916;-55
2022/04/30 06:30:29;;;;;;;;;;;8.40;99.90;;;;;;5047931;28;20366;-52
2022/04/30 06:32:54;;;;;;;;;;;8.50;99.90;;;;;;5052363;28;19913;-58
2022/04/30 06:35:20;;;;;;;;;;;8.60;99.90;;;;;;5048909;28;20282;-56
2022/04/30 06:37:45;;;;;;;;;;;8.50;99.90;;;;;;5049322;28;20359;-54
2022/04/30 06:40:12;;;;;;;;;;;8.60;99.90;;;;;;5051069;28;19955;-54
2022/04/30 06:42:41;;;;;;;;;;;8.60;99.90;;;;;;5046678;28;19936;-58
2022/04/30 06:45:07;;;;;;;;;;;8.70;99.90;;;;;;5044393;28;19912;-51
2022/04/30 06:47:33;;;;;;;;;;;8.60;99.90;;;;;;5051298;28;19909;-55
2022/04/30 06:49:58;;;;;;;;;;;8.60;99.90;;;;;;5050576;28;19913;-56
2022/04/30 06:52:23;;;;;;;;;;;8.70;99.90;;;;;;5051617;28;19962;-56
2022/04/30 06:57:33;;;;;;;;;;;9.00;99.90;;;;;;5046049;28;19954;-55
2022/04/30 06:59:59;;;;;;;;;;;9.10;99.90;;;;;;5050380;28;20337;-55
2022/04/30 07:02:28;;;;;;;;;;;9.00;99.90;;;;;;5048264;28;19909;-55
2022/04/30 07:04:54;;;;;;;;;;;9.10;99.90;;;;;;5045982;28;19949;-54
2022/04/30 07:07:20;;;;;;;;;;;9.00;99.90;;;;;;5044247;28;19909;-56
2022/04/30 07:09:46;;;;;;;;;;;9.10;99.90;;;;;;5042526;28;19917;-57
2022/04/30 07:12:13;;;;;;;;;;;9.20;99.90;;;;;;5048238;28;20282;-56
2022/04/30 07:14:40;;;;;;;;;;;9.30;99.90;;;;;;5046677;28;19915;-58
2022/04/30 07:17:06;;;;;;;;;;;9.40;99.90;;;;;;5050191;28;19909;-54
2022/04/30 07:19:32;;;;;;;;;;;9.50;99.90;;;;;;5051441;28;19917;-55
2022/04/30 07:21:58;;;;;;;;;;;9.50;99.90;;;;;;5049360;28;20482;-58
2022/04/30 07:24:23;;;;;;;;;;;9.60;99.90;;;;;;5050570;28;19909;-54
2022/04/30 07:26:49;;;;;;;;;;;9.60;99.90;;;;;;5049756;28;19935;-53
2022/04/30 07:29:14;;;;;;;;;;;9.60;99.90;;;;;;5048452;28;19938;-58
2022/04/30 07:31:40;;;;;;;;;;;9.70;99.90;;;;;;5044208;28;19912;-54
2022/04/30 07:34:06;;;;;;;;;;;9.80;99.90;;;;;;5046941;28;20861;-56
2022/04/30 07:36:31;;;;;;;;;;;9.80;99.90;;;;;;5048995;28;19911;-54
2022/04/30 07:38:57;;;;;;;;;;;9.70;99.90;;;;;;5040311;28;19947;-56
2022/04/30 07:41:23;;;;;;;;;;;9.70;99.90;;;;;;5043371;28;19908;-58
2022/04/30 07:43:48;;;;;;;;;;;9.50;99.90;;;;;;5043952;28;20278;-55
2022/04/30 07:46:14;;;;;;;;;;;9.30;99.90;;;;;;5043080;28;20501;-58
2022/04/30 07:48:39;;;;;;;;;;;9.20;99.90;;;;;;5042473;28;20382;-56
2022/04/30 07:51:13;;;;;;;;;;;9.10;99.90;;;;;;5044025;28;19909;-56
2022/04/30 07:53:38;;;;;;;;;;;9.30;99.90;;;;;;5051077;28;19912;-55
2022/04/30 07:56:04;;;;;;;;;;;9.50;99.90;;;;;;5045302;28;19920;-55
2022/04/30 07:58:29;;;;;;;;;;;9.80;99.90;;;;;;5046545;28;19958;-55
2022/04/30 08:00:55;;;;;;;;;;;10.00;99.90;;;;;;5041046;28;19909;-54
2022/04/30 08:03:21;;;;;;;;;;;10.00;99.90;;;;;;5045331;28;19913;-56
2022/04/30 08:05:46;;;;;;;;;;;9.90;99.90;;;;;;5043251;28;19909;-56
2022/04/30 08:08:12;;;;;;;;;;;9.70;99.90;;;;;;5046880;28;19915;-53
2022/04/30 08:10:37;;;;;;;;;;;9.60;99.90;;;;;;5042362;28;19948;-53
2022/04/30 08:13:03;;;;;;;;;;;9.60;99.90;;;;;;5044796;28;19909;-56
2022/04/30 08:15:28;;;;;;;;;;;9.70;99.90;;;;;;5041606;28;19929;-56
2022/04/30 08:17:54;;;;;;;;;;;9.70;99.90;;;;;;5043392;28;19912;-55
2022/04/30 08:20:20;;;;;;;;;;;9.80;99.90;;;;;;5045372;28;19996;-56
2022/04/30 08:22:45;;;;;;;;;;;9.70;99.90;;;;;;5045872;28;19905;-57
2022/04/30 08:25:11;;;;;;;;;;;9.70;99.90;;;;;;5041971;28;19912;-55
2022/04/30 08:27:36;;;;;;;;;;;9.60;99.90;;;;;;5047154;28;19912;-57
2022/04/30 08:30:02;;;;;;;;;;;9.80;99.90;;;;;;5044260;28;19913;-58
2022/04/30 08:32:28;;;;;;;;;;;9.90;99.90;;;;;;5063988;22;20328;-60
2022/04/30 08:34:53;;;;;;;;;;;10.20;99.90;;;;;;5067646;28;19923;-60
2022/04/30 08:37:19;;;;;;;;;;;10.40;99.90;;;;;;5067273;28;19915;-59
2022/04/30 08:39:45;;;;;;;;;;;10.60;99.90;;;;;;5065844;28;19956;-58
2022/04/30 08:42:12;;;;;;;;;;;10.70;99.90;;;;;;5067662;28;19916;-62
2022/04/30 08:44:38;;;;;;;;;;;10.90;99.90;;;;;;5065611;28;20298;-62
2022/04/30 08:47:03;;;;;;;;;;;10.80;99.90;;;;;;5065763;28;19931;-60
2022/04/30 08:49:30;;;;;;;;;;;10.90;99.90;;;;;;5062031;28;19916;-62
2022/04/30 08:51:56;;;;;;;;;;;10.70;99.90;;;;;;5064457;28;19915;-62
2022/04/30 08:54:21;;;;;;;;;;;10.80;99.90;;;;;;5067187;28;19995;-61
2022/04/30 08:56:51;;;;;;;;;;;10.80;99.90;;;;;;5065184;28;19967;-62
2022/04/30 08:59:16;;;;;;;;;;;10.70;99.90;;;;;;5067165;28;20007;-61
2022/04/30 09:01:44;;;;;;;;;;;10.70;99.90;;;;;;5067265;28;20007;-60
2022/04/30 09:04:10;;;;;;;;;;;10.70;99.90;;;;;;5062212;28;19912;-62
2022/04/30 09:06:44;;;;;;;;;;;10.70;99.90;;;;;;5067772;28;20048;-62
2022/04/30 09:09:09;;;;;;;;;;;10.70;99.90;;;;;;5065533;28;19917;-61
2022/04/30 09:11:38;;;;;;;;;;;10.80;99.90;;;;;;5060777;28;20290;-60
2022/04/30 09:14:03;;;;;;;;;;;11.00;99.90;;;;;;5065077;28;19914;-59
2022/04/30 09:16:28;;;;;;;;;;;11.30;99.90;;;;;;5062843;28;19916;-59
2022/04/30 09:19:00;;;;;;;;;;;11.30;99.90;;;;;;5064839;28;19916;-60
2022/04/30 09:21:26;;;;;;;;;;;11.40;99.90;;;;;;5065120;28;20396;-61
2022/04/30 09:23:53;;;;;;;;;;;11.20;99.90;;;;;;5061070;28;19908;-62
2022/04/30 09:26:18;;;;;;;;;;;11.00;99.90;;;;;;5066772;28;19912;-60
2022/04/30 09:28:45;;;;;;;;;;;11.20;99.90;;;;;;5065885;28;19938;-61
2022/04/30 09:31:12;;;;;;;;;;;11.40;99.90;;;;;;5065072;28;19908;-60
2022/04/30 09:33:53;;;;;;;;;;;11.60;99.90;;;;;;5066024;28;19919;-60
2022/04/30 09:39:13;;;;;;;;;;;11.70;99.90;;;;;;5065952;28;19962;-60
2022/04/30 09:41:39;;;;;;;;;;;11.90;99.90;;;;;;5066902;28;20446;-60
2022/04/30 09:44:05;;;;;;;;;;;11.90;99.90;;;;;;5067425;28;19995;-60
2022/04/30 09:46:33;;;;;;;;;;;11.80;99.90;;;;;;5067096;28;19912;-60
2022/04/30 09:54:27;;;;;;;;;;;11.80;99.90;;;;;;5059733;28;19923;-60
2022/04/30 09:56:55;;;;;;;;;;;11.80;99.90;;;;;;5060740;28;19919;-59
2022/04/30 09:59:22;;;;;;;;;;;12.30;99.90;;;;;;5063499;28;19916;-59
2022/04/30 10:01:48;;;;;;;;;;;12.50;99.90;;;;;;5060339;28;20383;-60
2022/04/30 10:04:17;;;;;;;;;;;12.20;99.90;;;;;;5063352;28;19912;-60
2022/04/30 10:06:48;;;;;;;;;;;12.20;99.90;;;;;;5065237;28;19943;-59
2022/04/30 10:09:15;;;;;;;;;;;12.30;99.90;;;;;;5066418;28;19999;-60
2022/04/30 10:11:40;;;;;;;;;;;12.30;99.90;;;;;;5060851;28;19927;-57
2022/04/30 10:14:13;;;;;;;;;;;12.40;99.90;;;;;;5061590;28;19908;-59
2022/04/30 10:16:42;;;;;;;;;;;12.60;99.90;;;;;;5063113;28;19923;-60
2022/04/30 10:19:14;;;;;;;;;;;13.00;99.90;;;;;;5067822;28;19984;-58
2022/04/30 10:21:40;;;;;;;;;;;13.30;99.90;;;;;;5062782;28;19951;-59
2022/04/30 10:24:06;;;;;;;;;;;13.30;99.90;;;;;;5065034;28;19944;-61
2022/04/30 10:26:32;;;;;;;;;;;13.50;99.90;;;;;;5064339;28;19916;-58
2022/04/30 10:28:58;;;;;;;;;;;13.30;99.90;;;;;;5067200;28;19957;-58
2022/04/30 10:31:24;;;;;;;;;;;13.50;99.90;;;;;;5067316;28;19977;-60
2022/04/30 10:33:50;;;;;;;;;;;13.70;99.90;;;;;;5068573;28;20401;-60
2022/04/30 10:36:16;;;;;;;;;;;13.70;99.90;;;;;;5068849;28;19915;-60
2022/04/30 10:38:44;;;;;;;;;;;14.10;99.90;;;;;;5066259;28;19964;-59
2022/04/30 10:41:10;;;;;;;;;;;14.30;99.90;;;;;;5065000;28;19914;-60
2022/04/30 10:43:37;;;;;;;;;;;14.20;99.90;;;;;;5063171;28;20026;-59
2022/04/30 10:46:05;;;;;;;;;;;14.00;99.90;;;;;;5060721;28;19999;-59
2022/04/30 10:48:32;;;;;;;;;;;13.60;99.90;;;;;;5064519;28;19931;-59
2022/04/30 10:51:00;;;;;;;;;;;13.40;99.90;;;;;;5066591;28;19996;-58
2022/04/30 10:53:27;;;;;;;;;;;13.50;99.90;;;;;;5070634;28;19958;-59
2022/04/30 10:55:53;;;;;;;;;;;13.80;99.90;;;;;;5068569;28;19969;-58
2022/04/30 10:58:21;;;;;;;;;;;13.80;99.90;;;;;;5070190;28;20546;-61
2022/04/30 11:00:46;;;;;;;;;;;13.80;99.90;;;;;;5067721;28;19920;-61
2022/04/30 11:03:12;;;;;;;;;;;14.30;99.90;;;;;;5070173;28;20014;-60
2022/04/30 11:05:37;;;;;;;;;;;14.50;99.90;;;;;;5072203;28;19919;-61
2022/04/30 11:08:03;;;;;;;;;;;14.60;99.90;;;;;;5072277;28;20374;-61
2022/04/30 11:10:29;;;;;;;;;;;14.60;99.90;;;;;;5070913;28;19912;-60
2022/04/30 11:13:04;;;;;;;;;;;14.80;99.90;;;;;;5071604;28;19952;-59
2022/04/30 11:15:30;;;;;;;;;;;14.70;99.90;;;;;;5070746;28;19932;-60
2022/04/30 11:17:57;;;;;;;;;;;14.30;99.90;;;;;;5071494;28;20358;-58
2022/04/30 11:20:23;;;;;;;;;;;14.00;99.90;;;;;;5065184;28;19908;-57
2022/04/30 11:22:55;;;;;;;;;;;14.10;99.90;;;;;;5068193;28;20336;-59
2022/04/30 11:25:21;;;;;;;;;;;14.50;99.90;;;;;;5070046;28;20017;-58
2022/04/30 11:27:46;;;;;;;;;;;14.60;99.90;;;;;;5070639;28;19913;-58
2022/04/30 11:30:12;;;;;;;;;;;14.90;99.90;;;;;;5069926;28;20019;-59
2022/04/30 11:32:37;;;;;;;;;;;14.70;99.90;;;;;;5067351;28;20425;-58
2022/04/30 11:35:04;;;;;;;;;;;14.60;99.90;;;;;;5071325;28;20366;-59
2022/04/30 11:37:39;;;;;;;;;;;14.90;99.90;;;;;;5070424;28;20453;-59
2022/04/30 11:40:05;;;;;;;;;;;15.10;99.90;;;;;;5058699;28;19951;-58
2022/04/30 11:42:31;;;;;;;;;;;15.40;99.90;;;;;;5070818;28;19923;-59
2022/04/30 11:44:56;;;;;;;;;;;15.80;99.90;;;;;;5070287;28;19909;-57
2022/04/30 11:47:22;;;;;;;;;;;15.30;99.90;;;;;;5069428;28;19905;-57
2022/04/30 11:49:47;;;;;;;;;;;14.80;99.90;;;;;;5067073;28;19912;-56
2022/04/30 11:52:14;;;;;;;;;;;14.70;99.90;;;;;;5070175;28;20002;-58
2022/04/30 11:54:40;;;;;;;;;;;15.10;99.90;;;;;;5066285;28;19911;-57
2022/04/30 11:57:05;;;;;;;;;;;15.60;99.90;;;;;;5070189;28;19912;-59
2022/04/30 11:59:34;;;;;;;;;;;16.10;99.90;;;;;;5069448;28;19916;-58
2022/04/30 12:02:00;;;;;;;;;;;16.00;99.90;;;;;;5065029;28;20366;-59
2022/04/30 12:04:26;;;;;;;;;;;15.60;99.90;;;;;;5070443;28;19931;-57
2022/04/30 12:06:58;;;;;;;;;;;15.20;99.90;;;;;;5070365;28;19909;-58
2022/04/30 12:09:28;;;;;;;;;;;15.10;99.90;;;;;;5068054;28;19912;-58
2022/04/30 12:11:53;;;;;;;;;;;14.80;99.90;;;;;;5068439;28;19915;-56
2022/04/30 12:14:19;;;;;;;;;;;15.10;99.90;;;;;;5065557;28;19923;-59
2022/04/30 12:16:46;;;;;;;;;;;15.40;99.90;;;;;;5065163;28;19912;-58
2022/04/30 12:25:03;;;;;;;;;;;14.80;99.90;;;;;;5064333;28;20277;-57
2022/04/30 12:27:29;;;;;;;;;;;14.60;99.90;;;;;;5065718;28;19946;-59
2022/04/30 12:30:14;;;;;;;;;;;14.90;99.90;;;;;;5066459;28;19920;-59
2022/04/30 12:32:49;;;;;;;;;;;15.30;99.90;;;;;;5063619;28;19908;-58
2022/04/30 12:35:15;;;;;;;;;;;15.80;99.90;;;;;;5066772;28;19916;-57
2022/04/30 12:37:41;;;;;;;;;;;15.90;99.90;;;;;;5069079;28;20267;-57
2022/04/30 12:40:06;;;;;;;;;;;15.40;99.90;;;;;;5066330;28;19962;-56
2022/04/30 12:42:33;;;;;;;;;;;14.90;99.90;;;;;;5063028;28;20332;-59
2022/04/30 12:44:59;;;;;;;;;;;15.20;99.90;;;;;;5067975;28;19972;-57
2022/04/30 12:47:25;;;;;;;;;;;15.80;99.90;;;;;;5060650;28;20333;-55
2022/04/30 12:49:51;;;;;;;;;;;16.70;99.90;;;;;;5060241;28;20384;-54
2022/04/30 12:52:16;;;;;;;;;;;16.80;99.90;;;;;;5068091;28;19915;-57
2022/04/30 12:54:42;;;;;;;;;;;16.20;99.90;;;;;;5066074;28;20343;-56
2022/04/30 12:57:07;;;;;;;;;;;15.50;99.90;;;;;;5069158;28;19912;-57
2022/04/30 12:59:37;;;;;;;;;;;15.30;99.90;;;;;;5071235;28;20011;-57
2022/04/30 13:02:03;;;;;;;;;;;16.00;99.90;;;;;;5068373;28;20002;-57
2022/04/30 13:04:29;;;;;;;;;;;16.20;99.90;;;;;;5069838;28;19924;-61
2022/04/30 13:06:55;;;;;;;;;;;16.40;99.90;;;;;;5069014;28;19916;-59
2022/04/30 13:14:50;;;;;;;;;;;15.30;99.90;;;;;;5062134;28;19915;-58
2022/04/30 13:17:15;;;;;;;;;;;15.50;99.90;;;;;;5068575;28;19943;-59
2022/04/30 13:19:41;;;;;;;;;;;15.90;99.90;;;;;;5067306;28;19955;-59
2022/04/30 13:22:06;;;;;;;;;;;15.80;99.90;;;;;;5060032;28;19919;-57
2022/04/30 13:24:33;;;;;;;;;;;15.50;99.90;;;;;;5058227;28;19939;-57
2022/04/30 13:26:58;;;;;;;;;;;15.30;99.90;;;;;;5063221;28;20589;-59
2022/04/30 13:29:24;;;;;;;;;;;15.50;99.90;;;;;;5062863;28;20103;-59
2022/04/30 13:31:49;;;;;;;;;;;16.20;99.90;;;;;;5065275;28;19912;-57
2022/04/30 13:34:15;;;;;;;;;;;16.80;99.90;;;;;;5062386;28;20436;-58
2022/04/30 13:36:40;;;;;;;;;;;17.30;99.90;;;;;;5061524;28;20007;-59
2022/04/30 13:39:06;;;;;;;;;;;17.40;99.90;;;;;;5062246;28;19943;-57
2022/04/30 13:41:31;;;;;;;;;;;17.40;99.90;;;;;;5064009;28;19923;-58
2022/04/30 13:43:57;;;;;;;;;;;17.60;99.90;;;;;;5068048;28;19917;-58
2022/04/30 13:46:23;;;;;;;;;;;17.70;99.90;;;;;;5066546;28;20521;-59
2022/04/30 13:48:51;;;;;;;;;;;17.20;99.90;;;;;;5066335;28;19927;-58
2022/04/30 13:51:17;;;;;;;;;;;16.60;99.90;;;;;;5067313;28;19908;-58
2022/04/30 13:53:42;;;;;;;;;;;16.60;99.90;;;;;;5072404;28;19988;-58
2022/04/30 13:56:08;;;;;;;;;;;16.80;99.90;;;;;;5063102;28;20007;-60
2022/04/30 13:58:33;;;;;;;;;;;16.90;99.90;;;;;;5068269;28;19912;-56
2022/04/30 14:00:59;;;;;;;;;;;16.40;99.90;;;;;;5063521;28;19947;-60
2022/04/30 14:03:25;;;;;;;;;;;16.00;99.90;;;;;;5066009;28;20342;-58
2022/04/30 14:05:50;;;;;;;;;;;15.80;99.90;;;;;;5067562;28;19927;-60
2022/04/30 14:08:16;;;;;;;;;;;15.70;99.90;;;;;;5068744;28;19912;-58
2022/04/30 14:10:42;;;;;;;;;;;15.70;99.90;;;;;;5064230;28;19920;-59
2022/04/30 14:15:51;;;;;;;;;;;16.90;99.90;;;;;;5069816;28;19973;-57
2022/04/30 14:18:19;;;;;;;;;;;17.60;99.90;;;;;;5071614;28;20449;-57
2022/04/30 14:20:45;;;;;;;;;;;17.80;99.90;;;;;;5068547;28;20569;-58
2022/04/30 14:23:13;;;;;;;;;;;17.70;99.90;;;;;;5067673;28;19935;-58
2022/04/30 14:25:39;;;;;;;;;;;17.30;99.90;;;;;;5069739;28;19912;-60
2022/04/30 14:28:07;;;;;;;;;;;16.80;99.90;;;;;;5069548;28;19962;-57
2022/04/30 14:30:34;;;;;;;;;;;16.40;99.90;;;;;;5069023;28;19912;-59
2022/04/30 14:33:01;;;;;;;;;;;16.00;99.90;;;;;;5067578;28;19915;-60
2022/04/30 14:35:26;;;;;;;;;;;16.00;99.90;;;;;;5064957;22;20059;-63
2022/04/30 14:37:52;;;;;;;;;;;15.90;99.90;;;;;;5045569;28;19995;-62
2022/04/30 14:40:17;;;;;;;;;;;15.90;99.90;;;;;;5048670;28;19909;-64
2022/04/30 14:42:44;;;;;;;;;;;15.90;99.90;;;;;;5049932;28;19959;-62
2022/04/30 14:45:10;;;;;;;;;;;16.30;99.90;;;;;;5045136;28;19909;-63
2022/04/30 14:47:36;;;;;;;;;;;16.70;99.90;;;;;;5048699;28;19939;-63
2022/04/30 14:50:02;;;;;;;;;;;17.00;99.90;;;;;;5052554;28;20399;-65
2022/04/30 14:52:27;;;;;;;;;;;17.10;99.90;;;;;;5047916;28;19913;-63
2022/04/30 14:54:53;;;;;;;;;;;17.10;99.90;;;;;;5055407;28;20380;-63
2022/04/30 14:57:18;;;;;;;;;;;17.10;99.90;;;;;;5047635;28;19983;-63
2022/04/30 14:59:44;;;;;;;;;;;17.10;99.90;;;;;;5050347;28;20354;-64
2022/04/30 15:02:09;;;;;;;;;;;17.30;99.90;;;;;;5049341;28;19908;-64
2022/04/30 15:04:35;;;;;;;;;;;17.30;99.90;;;;;;5045277;28;20039;-63